sensor_id;sensor_type;location;lat;lon;timestamp;temperature;humidity
29575;DHT22;16507;51.046;6.406;2023-02-28T00:00:26;-0.70;99.90
29575;DHT22;16507;51.046;6.406;2023-02-28T00:02:52;-0.80;99.90
29575;DHT22;16507;51.046;6.406;2023-02-28T00:05:20;-1.00;99.90
29575;DHT22;16507;51.046;6.406;2023-02-28T00:07:46;-1.00;99.90
29575;DHT22;16507;51.046;6.406;2023-02-28T00:10:15;-1.00;99.90
29575;DHT22;16507;51.046;6.406;2023-02-28T00:12:41;-1.00;99.90
29575;DHT22;16507;51.046;6.406;2023-02-28T00:15:09;-1.20;99.90
29575;DHT22;16507;51.046;6.406;2023-02-28T00:17:34;-1.00;99.90
29575;DHT22;16507;51.046;6.406;2023-02-28T00:20:00;-1.00;99.90
29575;DHT22;16507;51.046;6.406;2023-02-28T00:22:30;-0.90;99.90
29575;DHT22;16507;51.046;6.406;2023-02-28T00:24:55;-1.00;99.90
29575;DHT22;16507;51.046;6.406;2023-02-28T00:27:21;-1.10;99.90
29575;DHT22;16507;51.046;6.406;2023-02-28T00:29:47;-1.20;99.90
29575;DHT22;16507;51.046;6.406;2023-02-28T00:32:13;-1.10;99.90
29575;DHT22;16507;51.046;6.406;2023-02-28T00:34:39;-1.10;99.90
29575;DHT22;16507;51.046;6.406;2023-02-28T00:37:06;-1.20;99.90
29575;DHT22;16507;51.046;6.406;2023-02-28T00:39:33;-1.30;99.90
29575;DHT22;16507;51.046;6.406;2023-02-28T00:41:59;-1.30;99.90
29575;DHT22;16507;51.046;6.406;2023-02-28T00:44:25;-1.40;99.90
29575;DHT22;16507;51.046;6.406;2023-02-28T00:46:50;-1.50;99.90
29575;DHT22;16507;51.046;6.406;2023-02-28T00:49:17;-1.40;99.90
29575;DHT22;16507;51.046;6.406;2023-02-28T00:51:42;-1.40;99.90
29575;DHT22;16507;51.046;6.406;2023-02-28T00:54:08;-1.50;99.90
29575;DHT22;16507;51.046;6.406;2023-02-28T00:56:34;-1.50;99.90
29575;DHT22;16507;51.046;6.406;2023-02-28T00:58:59;-1.30;99.90
29575;DHT22;16507;51.046;6.406;2023-02-28T01:01:25;-1.20;99.90
29575;DHT22;16507;51.046;6.406;2023-02-28T01:03:50;-1.00;99.90
29575;DHT22;16507;51.046;6.406;2023-02-28T01:06:16;-1.00;99.90
29575;DHT22;16507;51.046;6.406;2023-02-28T01:08:42;-0.90;99.90
29575;DHT22;16507;51.046;6.406;2023-02-28T01:11:12;-0.90;99.90
29575;DHT22;16507;51.046;6.406;2023-02-28T01:13:38;-0.90;99.90
29575;DHT22;16507;51.046;6.406;2023-02-28T01:16:04;-0.90;99.90
29575;DHT22;16507;51.046;6.406;2023-02-28T01:18:29;-1.00;99.90
29575;DHT22;16507;51.046;6.406;2023-02-28T01:20:55;-1.00;99.90
29575;DHT22;16507;51.046;6.406;2023-02-28T01:23:27;-1.10;99.90
29575;DHT22;16507;51.046;6.406;2023-02-28T01:25:53;-1.10;99.90
29575;DHT22;16507;51.046;6.406;2023-02-28T01:28:18;-1.20;99.90
29575;DHT22;16507;51.046;6.406;2023-02-28T01:30:51;-1.20;99.90
29575;DHT22;16507;51.046;6.406;2023-02-28T01:33:16;-1.30;99.90
29575;DHT22;16507;51.046;6.406;2023-02-28T01:35:42;-1.30;99.90
29575;DHT22;16507;51.046;6.406;2023-02-28T01:38:08;-1.30;99.90
29575;DHT22;16507;51.046;6.406;2023-02-28T01:40:33;-1.30;99.90
29575;DHT22;16507;51.046;6.406;2023-02-28T01:42:59;-1.40;99.90
29575;DHT22;16507;51.046;6.406;2023-02-28T01:45:28;-1.50;99.90
29575;DHT22;16507;51.046;6.406;2023-02-28T01:48:05;-1.70;99.90
29575;DHT22;16507;51.046;6.406;2023-02-28T01:50:36;-1.80;99.90
29575;DHT22;16507;51.046;6.406;2023-02-28T01:53:06;-1.90;99.90
29575;DHT22;16507;51.046;6.406;2023-02-28T01:55:36;-2.00;99.90
29575;DHT22;16507;51.046;6.406;2023-02-28T01:58:04;-2.00;99.90
29575;DHT22;16507;51.046;6.406;2023-02-28T02:00:31;-2.00;99.90
29575;DHT22;16507;51.046;6.406;2023-02-28T02:02:59;-2.00;99.90
29575;DHT22;16507;51.046;6.406;2023-02-28T02:05:28;-2.00;99.90
29575;DHT22;16507;51.046;6.406;2023-02-28T02:08:10;-2.00;99.90
29575;DHT22;16507;51.046;6.406;2023-02-28T02:10:51;-2.00;99.90
29575;DHT22;16507;51.046;6.406;2023-02-28T02:13:50;-2.00;99.90
29575;DHT22;16507;51.046;6.406;2023-02-28T02:16:48;-2.00;99.90
29575;DHT22;16507;51.046;6.406;2023-02-28T02:22:51;-1.90;99.90
29575;DHT22;16507;51.046;6.406;2023-02-28T02:28:31;-1.70;99.90
29575;DHT22;16507;51.046;6.406;2023-02-28T02:34:13;-1.40;99.90
29575;DHT22;16507;51.046;6.406;2023-02-28T02:36:56;-1.10;99.90
29575;DHT22;16507;51.046;6.406;2023-02-28T02:40:30;-1.10;99.90
29575;DHT22;16507;51.046;6.406;2023-02-28T02:45:26;-1.10;99.90
29575;DHT22;16507;51.046;6.406;2023-02-28T02:47:55;-1.10;99.90
29575;DHT22;16507;51.046;6.406;2023-02-28T02:50:31;-1.10;99.90
29575;DHT22;16507;51.046;6.406;2023-02-28T02:53:01;-1.20;99.90
29575;DHT22;16507;51.046;6.406;2023-02-28T02:55:28;-1.20;99.90
29575;DHT22;16507;51.046;6.406;2023-02-28T02:57:59;-1.30;99.90
29575;DHT22;16507;51.046;6.406;2023-02-28T03:00:31;-1.30;99.90
29575;DHT22;16507;51.046;6.406;2023-02-28T03:02:59;-1.40;99.90
29575;DHT22;16507;51.046;6.406;2023-02-28T03:05:30;-1.40;99.90
29575;DHT22;16507;51.046;6.406;2023-02-28T03:07:57;-1.50;99.90
29575;DHT22;16507;51.046;6.406;2023-02-28T03:10:43;-1.50;99.90
29575;DHT22;16507;51.046;6.406;2023-02-28T03:21:44;-1.80;99.90
29575;DHT22;16507;51.046;6.406;2023-02-28T03:26:57;-2.10;99.90
29575;DHT22;16507;51.046;6.406;2023-02-28T03:29:34;-2.20;99.90
29575;DHT22;16507;51.046;6.406;2023-02-28T03:32:28;-2.20;99.90
29575;DHT22;16507;51.046;6.406;2023-02-28T03:35:07;-2.20;99.90
29575;DHT22;16507;51.046;6.406;2023-02-28T03:37:38;-2.10;99.90
29575;DHT22;16507;51.046;6.406;2023-02-28T03:40:11;-2.10;99.90
29575;DHT22;16507;51.046;6.406;2023-02-28T03:42:41;-2.10;99.90
29575;DHT22;16507;51.046;6.406;2023-02-28T03:45:16;-2.20;99.90
29575;DHT22;16507;51.046;6.406;2023-02-28T03:47:51;-2.20;99.90
29575;DHT22;16507;51.046;6.406;2023-02-28T03:50:24;-2.20;99.90
29575;DHT22;16507;51.046;6.406;2023-02-28T03:53:00;-2.20;99.90
29575;DHT22;16507;51.046;6.406;2023-02-28T03:55:32;-2.30;99.90
29575;DHT22;16507;51.046;6.406;2023-02-28T03:58:05;-2.40;99.90
29575;DHT22;16507;51.046;6.406;2023-02-28T04:00:37;-2.50;99.90
29575;DHT22;16507;51.046;6.406;2023-02-28T04:03:04;-2.60;99.90
29575;DHT22;16507;51.046;6.406;2023-02-28T04:05:30;-2.70;99.90
29575;DHT22;16507;51.046;6.406;2023-02-28T04:08:07;-2.70;99.90
29575;DHT22;16507;51.046;6.406;2023-02-28T04:10:33;-2.60;99.90
29575;DHT22;16507;51.046;6.406;2023-02-28T04:12:58;-2.60;99.90
29575;DHT22;16507;51.046;6.406;2023-02-28T04:15:24;-2.60;99.90
29575;DHT22;16507;51.046;6.406;2023-02-28T04:17:50;-2.50;99.90
29575;DHT22;16507;51.046;6.406;2023-02-28T04:20:16;-2.10;99.90
29575;DHT22;16507;51.046;6.406;2023-02-28T04:22:41;-2.00;99.90
29575;DHT22;16507;51.046;6.406;2023-02-28T04:25:07;-1.80;99.90
29575;DHT22;16507;51.046;6.406;2023-02-28T04:27:33;-1.80;99.90
29575;DHT22;16507;51.046;6.406;2023-02-28T04:29:59;-1.80;99.90
29575;DHT22;16507;51.046;6.406;2023-02-28T04:32:25;-1.70;99.90
29575;DHT22;16507;51.046;6.406;2023-02-28T04:34:51;-1.60;99.90
29575;DHT22;16507;51.046;6.406;2023-02-28T04:37:16;-1.60;99.90
29575;DHT22;16507;51.046;6.406;2023-02-28T04:39:42;-1.50;99.90
29575;DHT22;16507;51.046;6.406;2023-02-28T04:42:08;-1.50;99.90
29575;DHT22;16507;51.046;6.406;2023-02-28T04:44:34;-1.50;99.90
29575;DHT22;16507;51.046;6.406;2023-02-28T04:46:59;-1.50;99.90
29575;DHT22;16507;51.046;6.406;2023-02-28T04:49:25;-1.60;99.90
29575;DHT22;16507;51.046;6.406;2023-02-28T04:51:50;-1.60;99.90
29575;DHT22;16507;51.046;6.406;2023-02-28T04:54:16;-1.60;99.90
29575;DHT22;16507;51.046;6.406;2023-02-28T04:56:43;-1.60;99.90
29575;DHT22;16507;51.046;6.406;2023-02-28T04:59:08;-1.70;99.90
29575;DHT22;16507;51.046;6.406;2023-02-28T05:01:34;-1.70;99.90
29575;DHT22;16507;51.046;6.406;2023-02-28T05:04:03;-1.70;99.90
29575;DHT22;16507;51.046;6.406;2023-02-28T05:06:31;-1.70;99.90
29575;DHT22;16507;51.046;6.406;2023-02-28T05:08:58;-1.80;99.90
29575;DHT22;16507;51.046;6.406;2023-02-28T05:11:26;-1.80;99.90
29575;DHT22;16507;51.046;6.406;2023-02-28T05:13:54;-1.90;99.90
29575;DHT22;16507;51.046;6.406;2023-02-28T05:16:20;-1.90;99.90
29575;DHT22;16507;51.046;6.406;2023-02-28T05:18:47;-2.00;99.90
29575;DHT22;16507;51.046;6.406;2023-02-28T05:21:23;-2.10;99.90
29575;DHT22;16507;51.046;6.406;2023-02-28T05:23:50;-2.10;99.90
29575;DHT22;16507;51.046;6.406;2023-02-28T05:26:15;-2.30;99.90
29575;DHT22;16507;51.046;6.406;2023-02-28T05:28:41;-2.30;99.90
29575;DHT22;16507;51.046;6.406;2023-02-28T05:31:10;-2.30;99.90
29575;DHT22;16507;51.046;6.406;2023-02-28T05:33:36;-2.40;99.90
29575;DHT22;16507;51.046;6.406;2023-02-28T05:36:02;-2.60;99.90
29575;DHT22;16507;51.046;6.406;2023-02-28T05:38:27;-2.60;99.90
29575;DHT22;16507;51.046;6.406;2023-02-28T05:40:53;-2.60;99.90
29575;DHT22;16507;51.046;6.406;2023-02-28T05:43:19;-2.60;99.90
29575;DHT22;16507;51.046;6.406;2023-02-28T05:45:44;-2.70;99.90
29575;DHT22;16507;51.046;6.406;2023-02-28T05:48:10;-2.50;99.90
29575;DHT22;16507;51.046;6.406;2023-02-28T05:50:36;-2.40;99.90
29575;DHT22;16507;51.046;6.406;2023-02-28T05:53:02;-2.30;99.90
29575;DHT22;16507;51.046;6.406;2023-02-28T05:55:27;-2.20;99.90
29575;DHT22;16507;51.046;6.406;2023-02-28T05:57:53;-2.20;99.90
29575;DHT22;16507;51.046;6.406;2023-02-28T06:00:19;-2.10;99.90
29575;DHT22;16507;51.046;6.406;2023-02-28T06:02:44;-2.20;99.90
29575;DHT22;16507;51.046;6.406;2023-02-28T06:05:15;-2.20;99.90
29575;DHT22;16507;51.046;6.406;2023-02-28T06:07:41;-2.30;99.90
29575;DHT22;16507;51.046;6.406;2023-02-28T06:10:07;-2.40;99.90
29575;DHT22;16507;51.046;6.406;2023-02-28T06:12:33;-2.50;99.90
29575;DHT22;16507;51.046;6.406;2023-02-28T06:14:58;-2.60;99.90
29575;DHT22;16507;51.046;6.406;2023-02-28T06:17:24;-2.60;99.90
29575;DHT22;16507;51.046;6.406;2023-02-28T06:19:50;-2.60;99.90
29575;DHT22;16507;51.046;6.406;2023-02-28T06:22:15;-2.60;99.90
29575;DHT22;16507;51.046;6.406;2023-02-28T06:24:41;-2.50;99.90
29575;DHT22;16507;51.046;6.406;2023-02-28T06:27:07;-2.50;99.90
29575;DHT22;16507;51.046;6.406;2023-02-28T06:29:34;-2.40;99.90
29575;DHT22;16507;51.046;6.406;2023-02-28T06:31:59;-2.30;99.90
29575;DHT22;16507;51.046;6.406;2023-02-28T06:34:25;-2.20;99.90
29575;DHT22;16507;51.046;6.406;2023-02-28T06:36:52;-2.20;99.90
29575;DHT22;16507;51.046;6.406;2023-02-28T06:39:17;-2.10;99.90
29575;DHT22;16507;51.046;6.406;2023-02-28T06:41:47;-2.10;99.90
29575;DHT22;16507;51.046;6.406;2023-02-28T06:44:15;-2.10;99.90
29575;DHT22;16507;51.046;6.406;2023-02-28T06:46:42;-2.20;99.90
29575;DHT22;16507;51.046;6.406;2023-02-28T06:49:08;-2.20;99.90
29575;DHT22;16507;51.046;6.406;2023-02-28T06:51:34;-2.20;99.90
29575;DHT22;16507;51.046;6.406;2023-02-28T06:54:01;-2.00;99.90
29575;DHT22;16507;51.046;6.406;2023-02-28T06:56:27;-1.70;99.90
29575;DHT22;16507;51.046;6.406;2023-02-28T06:58:52;-1.20;99.90
29575;DHT22;16507;51.046;6.406;2023-02-28T07:01:18;-1.10;99.90
29575;DHT22;16507;51.046;6.406;2023-02-28T07:03:45;-0.30;99.90
29575;DHT22;16507;51.046;6.406;2023-02-28T07:06:11;0.00;99.90
29575;DHT22;16507;51.046;6.406;2023-02-28T07:08:37;0.00;99.90
29575;DHT22;16507;51.046;6.406;2023-02-28T07:11:03;-0.20;99.90
29575;DHT22;16507;51.046;6.406;2023-02-28T07:13:29;-0.60;99.90
29575;DHT22;16507;51.046;6.406;2023-02-28T07:18:20;-1.30;99.90
29575;DHT22;16507;51.046;6.406;2023-02-28T07:20:46;-0.90;99.90
29575;DHT22;16507;51.046;6.406;2023-02-28T07:23:11;0.30;99.90
29575;DHT22;16507;51.046;6.406;2023-02-28T07:25:37;1.70;87.10
29575;DHT22;16507;51.046;6.406;2023-02-28T07:28:02;2.50;71.40
29575;DHT22;16507;51.046;6.406;2023-02-28T07:30:28;2.90;68.90
29575;DHT22;16507;51.046;6.406;2023-02-28T07:32:53;4.20;55.70
29575;DHT22;16507;51.046;6.406;2023-02-28T07:35:21;4.00;56.50
29575;DHT22;16507;51.046;6.406;2023-02-28T07:37:47;4.50;50.00
29575;DHT22;16507;51.046;6.406;2023-02-28T07:40:13;4.00;50.30
29575;DHT22;16507;51.046;6.406;2023-02-28T07:42:40;2.60;67.70
29575;DHT22;16507;51.046;6.406;2023-02-28T07:45:07;1.20;81.50
29575;DHT22;16507;51.046;6.406;2023-02-28T07:47:39;1.00;99.90
29575;DHT22;16507;51.046;6.406;2023-02-28T07:50:06;1.50;1.00
29575;DHT22;16507;51.046;6.406;2023-02-28T07:52:32;0.50;99.90
29575;DHT22;16507;51.046;6.406;2023-02-28T07:54:58;0.00;99.90
29575;DHT22;16507;51.046;6.406;2023-02-28T07:57:24;-0.30;1.00
29575;DHT22;16507;51.046;6.406;2023-02-28T07:59:49;-0.20;99.90
29575;DHT22;16507;51.046;6.406;2023-02-28T08:02:17;-0.20;1.00
29575;DHT22;16507;51.046;6.406;2023-02-28T08:04:44;-0.30;1.00
29575;DHT22;16507;51.046;6.406;2023-02-28T08:07:11;-0.30;1.00
29575;DHT22;16507;51.046;6.406;2023-02-28T08:09:41;-0.20;1.00
29575;DHT22;16507;51.046;6.406;2023-02-28T08:12:08;-0.20;1.00
29575;DHT22;16507;51.046;6.406;2023-02-28T08:14:34;0.00;99.90
29575;DHT22;16507;51.046;6.406;2023-02-28T08:17:00;0.10;94.70
29575;DHT22;16507;51.046;6.406;2023-02-28T08:19:26;0.10;99.90
29575;DHT22;16507;51.046;6.406;2023-02-28T08:21:51;0.10;1.00
29575;DHT22;16507;51.046;6.406;2023-02-28T08:24:17;-0.10;1.00
29575;DHT22;16507;51.046;6.406;2023-02-28T08:26:42;-0.10;1.00
29575;DHT22;16507;51.046;6.406;2023-02-28T08:29:08;-0.30;1.00
29575;DHT22;16507;51.046;6.406;2023-02-28T08:31:34;-0.30;1.00
29575;DHT22;16507;51.046;6.406;2023-02-28T08:34:05;0.00;99.90
29575;DHT22;16507;51.046;6.406;2023-02-28T08:36:34;0.40;99.90
29575;DHT22;16507;51.046;6.406;2023-02-28T08:39:00;0.70;1.00
29575;DHT22;16507;51.046;6.406;2023-02-28T08:41:26;0.80;1.00
29575;DHT22;16507;51.046;6.406;2023-02-28T08:43:52;1.00;80.90
29575;DHT22;16507;51.046;6.406;2023-02-28T08:46:19;1.30;77.50
29575;DHT22;16507;51.046;6.406;2023-02-28T08:48:45;1.50;58.80
29575;DHT22;16507;51.046;6.406;2023-02-28T08:51:13;1.60;55.80
29575;DHT22;16507;51.046;6.406;2023-02-28T08:53:40;1.70;49.50
29575;DHT22;16507;51.046;6.406;2023-02-28T08:56:08;1.70;47.70
29575;DHT22;16507;51.046;6.406;2023-02-28T08:58:35;1.80;49.20
29575;DHT22;16507;51.046;6.406;2023-02-28T09:01:07;1.90;45.30
29575;DHT22;16507;51.046;6.406;2023-02-28T09:03:33;2.00;46.50
29575;DHT22;16507;51.046;6.406;2023-02-28T09:06:00;2.00;42.00
29575;DHT22;16507;51.046;6.406;2023-02-28T09:08:29;2.00;41.40
29575;DHT22;16507;51.046;6.406;2023-02-28T09:10:55;2.10;41.20
29575;DHT22;16507;51.046;6.406;2023-02-28T09:13:24;2.20;45.50
29575;DHT22;16507;51.046;6.406;2023-02-28T09:15:49;2.20;42.20
29575;DHT22;16507;51.046;6.406;2023-02-28T09:18:15;2.30;38.00
29575;DHT22;16507;51.046;6.406;2023-02-28T09:20:42;2.30;30.80
29575;DHT22;16507;51.046;6.406;2023-02-28T09:23:09;2.40;37.60
29575;DHT22;16507;51.046;6.406;2023-02-28T09:25:36;2.40;38.50
29575;DHT22;16507;51.046;6.406;2023-02-28T09:28:02;2.50;30.00
29575;DHT22;16507;51.046;6.406;2023-02-28T09:30:27;2.40;26.50
29575;DHT22;16507;51.046;6.406;2023-02-28T09:32:54;2.50;33.20
29575;DHT22;16507;51.046;6.406;2023-02-28T09:35:20;2.60;32.20
29575;DHT22;16507;51.046;6.406;2023-02-28T09:37:48;2.70;27.80
29575;DHT22;16507;51.046;6.406;2023-02-28T09:40:14;2.70;28.30
29575;DHT22;16507;51.046;6.406;2023-02-28T09:42:45;2.80;29.90
29575;DHT22;16507;51.046;6.406;2023-02-28T09:45:30;2.80;29.70
29575;DHT22;16507;51.046;6.406;2023-02-28T09:48:06;2.90;29.00
29575;DHT22;16507;51.046;6.406;2023-02-28T09:50:38;2.90;25.00
29575;DHT22;16507;51.046;6.406;2023-02-28T09:53:31;2.90;25.90
29575;DHT22;16507;51.046;6.406;2023-02-28T09:58:42;3.20;28.60
29575;DHT22;16507;51.046;6.406;2023-02-28T10:06:57;3.20;22.30
29575;DHT22;16507;51.046;6.406;2023-02-28T10:09:24;3.10;19.90
29575;DHT22;16507;51.046;6.406;2023-02-28T10:11:54;3.10;22.10
29575;DHT22;16507;51.046;6.406;2023-02-28T10:14:23;3.40;27.60
29575;DHT22;16507;51.046;6.406;2023-02-28T10:16:56;3.30;19.30
29575;DHT22;16507;51.046;6.406;2023-02-28T10:19:44;2.90;20.50
29575;DHT22;16507;51.046;6.406;2023-02-28T10:22:26;2.60;18.90
29575;DHT22;16507;51.046;6.406;2023-02-28T10:24:55;3.20;24.30
29575;DHT22;16507;51.046;6.406;2023-02-28T10:27:34;3.10;24.50
29575;DHT22;16507;51.046;6.406;2023-02-28T10:30:01;3.20;25.00
29575;DHT22;16507;51.046;6.406;2023-02-28T10:32:34;3.30;26.00
29575;DHT22;16507;51.046;6.406;2023-02-28T10:35:24;3.30;22.80
29575;DHT22;16507;51.046;6.406;2023-02-28T10:38:00;3.40;22.00
29575;DHT22;16507;51.046;6.406;2023-02-28T10:40:32;3.50;20.80
29575;DHT22;16507;51.046;6.406;2023-02-28T10:43:13;3.50;21.70
29575;DHT22;16507;51.046;6.406;2023-02-28T10:51:07;3.50;25.60
29575;DHT22;16507;51.046;6.406;2023-02-28T10:58:50;3.70;23.30
29575;DHT22;16507;51.046;6.406;2023-02-28T11:01:39;3.60;23.90
29575;DHT22;16507;51.046;6.406;2023-02-28T11:09:39;3.80;22.70
29575;DHT22;16507;51.046;6.406;2023-02-28T11:12:17;3.90;18.80
29575;DHT22;16507;51.046;6.406;2023-02-28T11:14:53;3.70;17.90
29575;DHT22;16507;51.046;6.406;2023-02-28T11:17:25;3.70;18.00
29575;DHT22;16507;51.046;6.406;2023-02-28T11:19:54;3.50;18.10
29575;DHT22;16507;51.046;6.406;2023-02-28T11:22:24;3.60;17.80
29575;DHT22;16507;51.046;6.406;2023-02-28T11:24:56;3.90;20.10
29575;DHT22;16507;51.046;6.406;2023-02-28T11:30:30;4.00;18.90
29575;DHT22;16507;51.046;6.406;2023-02-28T11:32:56;3.60;19.50
29575;DHT22;16507;51.046;6.406;2023-02-28T11:35:30;3.70;18.60
29575;DHT22;16507;51.046;6.406;2023-02-28T11:37:57;4.40;21.40
29575;DHT22;16507;51.046;6.406;2023-02-28T11:40:34;4.00;20.20
29575;DHT22;16507;51.046;6.406;2023-02-28T11:48:33;3.40;21.90
29575;DHT22;16507;51.046;6.406;2023-02-28T11:51:30;3.70;21.60
29575;DHT22;16507;51.046;6.406;2023-02-28T11:56:51;4.00;20.90
29575;DHT22;16507;51.046;6.406;2023-02-28T11:59:45;3.40;18.50
29575;DHT22;16507;51.046;6.406;2023-02-28T12:08:17;3.60;22.20
29575;DHT22;16507;51.046;6.406;2023-02-28T12:16:31;4.70;19.90
29575;DHT22;16507;51.046;6.406;2023-02-28T12:26:59;4.00;19.20
29575;DHT22;16507;51.046;6.406;2023-02-28T12:29:32;3.80;20.60
29575;DHT22;16507;51.046;6.406;2023-02-28T12:34:49;3.80;21.20
29575;DHT22;16507;51.046;6.406;2023-02-28T12:37:21;4.00;21.00
29575;DHT22;16507;51.046;6.406;2023-02-28T12:39:54;4.30;21.40
29575;DHT22;16507;51.046;6.406;2023-02-28T12:44:56;4.30;19.80
29575;DHT22;16507;51.046;6.406;2023-02-28T12:47:23;4.60;21.40
29575;DHT22;16507;51.046;6.406;2023-02-28T12:50:05;4.50;19.00
29575;DHT22;16507;51.046;6.406;2023-02-28T12:55:50;4.50;24.40
29575;DHT22;16507;51.046;6.406;2023-02-28T13:04:37;4.50;16.80
29575;DHT22;16507;51.046;6.406;2023-02-28T13:09:54;4.80;21.00
29575;DHT22;16507;51.046;6.406;2023-02-28T13:12:20;4.60;25.80
29575;DHT22;16507;51.046;6.406;2023-02-28T13:14:48;4.70;20.10
29575;DHT22;16507;51.046;6.406;2023-02-28T13:17:23;4.90;24.40
29575;DHT22;16507;51.046;6.406;2023-02-28T13:22:37;5.00;22.50
29575;DHT22;16507;51.046;6.406;2023-02-28T13:27:52;4.80;23.40
29575;DHT22;16507;51.046;6.406;2023-02-28T13:33:27;5.60;25.50
29575;DHT22;16507;51.046;6.406;2023-02-28T13:38:49;5.40;24.20
29575;DHT22;16507;51.046;6.406;2023-02-28T13:49:29;4.80;17.20
29575;DHT22;16507;51.046;6.406;2023-02-28T14:03:05;4.90;20.70
29575;DHT22;16507;51.046;6.406;2023-02-28T14:05:34;5.00;17.60
29575;DHT22;16507;51.046;6.406;2023-02-28T14:10:47;5.20;18.90
29575;DHT22;16507;51.046;6.406;2023-02-28T14:16:01;5.10;22.00
29575;DHT22;16507;51.046;6.406;2023-02-28T14:18:35;5.30;19.50
29575;DHT22;16507;51.046;6.406;2023-02-28T14:21:24;5.70;21.50
29575;DHT22;16507;51.046;6.406;2023-02-28T14:26:54;5.60;20.60
29575;DHT22;16507;51.046;6.406;2023-02-28T14:32:41;5.60;18.50
29575;DHT22;16507;51.046;6.406;2023-02-28T14:37:42;5.50;15.90
29575;DHT22;16507;51.046;6.406;2023-02-28T14:40:28;5.60;17.50
29575;DHT22;16507;51.046;6.406;2023-02-28T14:45:31;5.40;18.20
29575;DHT22;16507;51.046;6.406;2023-02-28T14:47:58;5.60;19.00
29575;DHT22;16507;51.046;6.406;2023-02-28T14:50:34;5.60;17.70
29575;DHT22;16507;51.046;6.406;2023-02-28T14:53:01;5.60;19.00
29575;DHT22;16507;51.046;6.406;2023-02-28T14:55:32;5.50;19.60
29575;DHT22;16507;51.046;6.406;2023-02-28T14:58:04;5.80;18.70
29575;DHT22;16507;51.046;6.406;2023-02-28T15:00:36;5.80;19.60
29575;DHT22;16507;51.046;6.406;2023-02-28T15:03:23;5.70;17.30
29575;DHT22;16507;51.046;6.406;2023-02-28T15:06:01;5.60;16.20
29575;DHT22;16507;51.046;6.406;2023-02-28T15:08:27;5.60;16.80
29575;DHT22;16507;51.046;6.406;2023-02-28T15:11:00;5.40;17.50
29575;DHT22;16507;51.046;6.406;2023-02-28T15:13:48;5.60;20.30
29575;DHT22;16507;51.046;6.406;2023-02-28T15:16:25;5.60;21.30
29575;DHT22;16507;51.046;6.406;2023-02-28T15:19:00;5.30;16.10
29575;DHT22;16507;51.046;6.406;2023-02-28T15:21:30;5.40;19.50
29575;DHT22;16507;51.046;6.406;2023-02-28T15:24:30;5.40;17.40
29575;DHT22;16507;51.046;6.406;2023-02-28T15:27:00;5.60;20.10
29575;DHT22;16507;51.046;6.406;2023-02-28T15:29:29;5.50;17.90
29575;DHT22;16507;51.046;6.406;2023-02-28T15:32:05;5.50;18.50
29575;DHT22;16507;51.046;6.406;2023-02-28T15:34:35;5.50;18.50
29575;DHT22;16507;51.046;6.406;2023-02-28T15:37:01;5.50;19.50
29575;DHT22;16507;51.046;6.406;2023-02-28T15:39:28;5.50;21.70
29575;DHT22;16507;51.046;6.406;2023-02-28T15:42:11;5.30;20.20
29575;DHT22;16507;51.046;6.406;2023-02-28T15:44:38;5.30;20.00
29575;DHT22;16507;51.046;6.406;2023-02-28T15:47:06;5.30;21.10
29575;DHT22;16507;51.046;6.406;2023-02-28T15:49:44;5.20;20.90
29575;DHT22;16507;51.046;6.406;2023-02-28T15:52:17;5.10;23.20
29575;DHT22;16507;51.046;6.406;2023-02-28T15:54:44;5.00;23.40
29575;DHT22;16507;51.046;6.406;2023-02-28T15:57:19;5.00;22.50
29575;DHT22;16507;51.046;6.406;2023-02-28T15:59:55;5.00;22.40
29575;DHT22;16507;51.046;6.406;2023-02-28T16:04:56;4.80;23.70
29575;DHT22;16507;51.046;6.406;2023-02-28T16:07:22;4.70;21.90
29575;DHT22;16507;51.046;6.406;2023-02-28T16:09:50;4.70;22.80
29575;DHT22;16507;51.046;6.406;2023-02-28T16:12:15;4.60;24.00
29575;DHT22;16507;51.046;6.406;2023-02-28T16:14:41;4.60;25.20
29575;DHT22;16507;51.046;6.406;2023-02-28T16:17:21;4.50;21.80
29575;DHT22;16507;51.046;6.406;2023-02-28T16:19:48;4.50;24.00
29575;DHT22;16507;51.046;6.406;2023-02-28T16:22:14;4.40;23.90
29575;DHT22;16507;51.046;6.406;2023-02-28T16:24:39;4.30;24.00
29575;DHT22;16507;51.046;6.406;2023-02-28T16:27:05;4.30;25.70
29575;DHT22;16507;51.046;6.406;2023-02-28T16:29:34;4.30;25.40
29575;DHT22;16507;51.046;6.406;2023-02-28T16:32:01;4.20;26.70
29575;DHT22;16507;51.046;6.406;2023-02-28T16:34:29;4.20;26.00
29575;DHT22;16507;51.046;6.406;2023-02-28T16:36:54;4.10;27.20
29575;DHT22;16507;51.046;6.406;2023-02-28T16:39:20;4.00;26.80
29575;DHT22;16507;51.046;6.406;2023-02-28T16:41:47;3.80;28.30
29575;DHT22;16507;51.046;6.406;2023-02-28T16:44:28;3.70;28.40
29575;DHT22;16507;51.046;6.406;2023-02-28T16:46:54;3.70;28.80
29575;DHT22;16507;51.046;6.406;2023-02-28T16:49:20;3.60;29.60
29575;DHT22;16507;51.046;6.406;2023-02-28T16:51:46;3.60;29.10
29575;DHT22;16507;51.046;6.406;2023-02-28T16:54:11;3.60;28.90
29575;DHT22;16507;51.046;6.406;2023-02-28T16:56:40;3.50;29.80
29575;DHT22;16507;51.046;6.406;2023-02-28T16:59:08;3.40;31.50
29575;DHT22;16507;51.046;6.406;2023-02-28T17:01:34;3.30;31.80
29575;DHT22;16507;51.046;6.406;2023-02-28T17:03:59;3.20;31.70
29575;DHT22;16507;51.046;6.406;2023-02-28T17:06:28;3.20;32.50
29575;DHT22;16507;51.046;6.406;2023-02-28T17:08:54;3.20;32.40
29575;DHT22;16507;51.046;6.406;2023-02-28T17:11:21;3.10;33.40
29575;DHT22;16507;51.046;6.406;2023-02-28T17:13:47;3.10;32.60
29575;DHT22;16507;51.046;6.406;2023-02-28T17:16:28;3.10;34.40
29575;DHT22;16507;51.046;6.406;2023-02-28T17:18:58;3.00;34.10
29575;DHT22;16507;51.046;6.406;2023-02-28T17:21:24;3.00;34.60
29575;DHT22;16507;51.046;6.406;2023-02-28T17:23:52;2.90;36.60
29575;DHT22;16507;51.046;6.406;2023-02-28T17:26:19;2.80;37.20
29575;DHT22;16507;51.046;6.406;2023-02-28T17:28:46;2.80;37.30
29575;DHT22;16507;51.046;6.406;2023-02-28T17:31:12;2.80;38.30
29575;DHT22;16507;51.046;6.406;2023-02-28T17:33:37;2.80;38.90
29575;DHT22;16507;51.046;6.406;2023-02-28T17:36:03;2.60;40.60
29575;DHT22;16507;51.046;6.406;2023-02-28T17:38:29;2.60;42.00
29575;DHT22;16507;51.046;6.406;2023-02-28T17:40:55;2.50;42.50
29575;DHT22;16507;51.046;6.406;2023-02-28T17:43:26;2.50;42.40
29575;DHT22;16507;51.046;6.406;2023-02-28T17:45:53;2.50;43.50
29575;DHT22;16507;51.046;6.406;2023-02-28T17:48:19;2.50;42.90
29575;DHT22;16507;51.046;6.406;2023-02-28T17:50:45;2.40;41.00
29575;DHT22;16507;51.046;6.406;2023-02-28T17:53:11;2.30;1.00
29575;DHT22;16507;51.046;6.406;2023-02-28T17:55:36;2.30;1.00
29575;DHT22;16507;51.046;6.406;2023-02-28T17:58:03;2.30;1.00
29575;DHT22;16507;51.046;6.406;2023-02-28T18:00:29;2.20;1.00
29575;DHT22;16507;51.046;6.406;2023-02-28T18:02:57;2.10;1.00
29575;DHT22;16507;51.046;6.406;2023-02-28T18:05:23;2.00;1.00
29575;DHT22;16507;51.046;6.406;2023-02-28T18:07:49;1.90;1.00
29575;DHT22;16507;51.046;6.406;2023-02-28T18:12:47;1.90;1.00
29575;DHT22;16507;51.046;6.406;2023-02-28T18:15:14;1.80;1.00
29575;DHT22;16507;51.046;6.406;2023-02-28T18:17:40;1.70;1.00
29575;DHT22;16507;51.046;6.406;2023-02-28T18:20:06;1.80;1.00
29575;DHT22;16507;51.046;6.406;2023-02-28T18:22:32;1.70;1.00
29575;DHT22;16507;51.046;6.406;2023-02-28T18:24:59;1.70;1.00